Time;durP1;ratioP1;P1;durP2;ratioP2;P2;SDS_P1;SDS_P2;PMS_P1;PMS_P2;Temp;Humidity;BMP_temperature;BMP_pressure;BME280_temperature;BME280_humidity;BME280_pressure;Samples;Min_cycle;Max_cycle;Signal;HPM_P1;HPM_P2
2022/07/11 00:02:10;;;;;;;9.15;5.28;;;;;;;18.54;63.55;100428.09;5012433;28;20047;-80
2022/07/11 00:04:36;;;;;;;7.68;5.10;;;;;;;18.50;64.03;100413.25;5000227;28;20494;-80
2022/07/11 00:07:04;;;;;;;7.03;5.43;;;;;;;18.42;64.52;100412.66;5010867;28;20050;-83
2022/07/11 00:09:31;;;;;;;6.80;5.63;;;;;;;18.50;64.34;100434.19;4999671;28;20043;-82
2022/07/11 00:11:56;;;;;;;7.53;6.10;;;;;;;18.46;64.28;100432.94;5029251;28;20401;-82
2022/07/11 00:14:22;;;;;;;;;;;;;;;18.44;63.72;100438.59;5033085;28;20042;-82
2022/07/11 00:16:53;;;;;;;9.85;6.63;;;;;;;18.34;63.84;100430.91;5023576;28;19927;-81
2022/07/11 00:19:22;;;;;;;9.60;7.55;;;;;;;18.37;63.83;100439.69;5019665;28;20115;-82
2022/07/11 00:21:49;;;;;;;7.15;6.05;;;;;;;18.30;63.67;100429.66;5007306;28;20044;-81
2022/07/11 00:24:17;;;;;;;8.35;5.38;;;;;;;18.25;63.54;100425.94;5012208;28;20051;-81
2022/07/11 00:26:43;;;;;;;6.63;5.20;;;;;;;18.35;63.62;100438.03;4995437;28;20437;-81
2022/07/11 00:29:08;;;;;;;;;;;;;;;18.45;63.50;100448.44;5020783;28;20484;-83
2022/07/11 00:31:35;;;;;;;6.30;5.07;;;;;;;18.29;63.16;100438.91;5008694;28;19909;-86
2022/07/11 00:34:04;;;;;;;6.93;4.78;;;;;;;18.41;62.85;100447.22;4998572;28;20115;-83
2022/07/11 00:36:31;;;;;;;5.88;4.57;;;;;;;18.46;62.51;100452.00;5028416;28;20033;-82
2022/07/11 00:38:58;;;;;;;8.52;4.93;;;;;;;18.48;62.63;100445.28;5002462;28;20386;-82
2022/07/11 00:41:27;;;;;;;6.78;4.57;;;;;;;18.48;62.58;100441.72;5017753;28;20037;-82
2022/07/11 00:43:57;;;;;;;5.80;4.40;;;;;;;18.55;62.74;100442.53;4995687;28;20496;-82
2022/07/11 00:46:23;;;;;;;5.82;4.55;;;;;;;18.54;62.29;100436.25;5013045;28;20041;-81
2022/07/11 00:48:52;;;;;;;;;;;;;;;18.62;62.38;100447.94;5001948;28;20342;-80
2022/07/11 00:51:22;;;;;;;5.43;4.63;;;;;;;18.50;62.38;100450.53;5035822;28;19983;-83
2022/07/11 00:53:55;;;;;;;5.35;4.53;;;;;;;18.60;62.32;100455.47;5025163;28;20037;-82
2022/07/11 00:56:27;;;;;;;6.32;4.82;;;;;;;18.61;62.09;100457.97;5013290;28;20065;-82
2022/07/11 00:58:56;;;;;;;5.22;4.13;;;;;;;18.66;62.05;100465.47;5028478;28;20037;-82
2022/07/11 01:01:22;;;;;;;5.65;4.28;;;;;;;18.51;62.45;100469.34;5012628;28;20048;-85
2022/07/11 01:03:48;;;;;;;5.70;4.30;;;;;;;18.61;62.31;100473.47;5003948;28;20039;-82
2022/07/11 01:06:13;;;;;;;;;;;;;;;18.53;62.53;100485.47;5025970;28;20151;-80
2022/07/11 01:08:41;;;;;;;6.53;4.65;;;;;;;18.47;62.78;100483.59;5013641;28;19939;-81
2022/07/11 01:11:12;;;;;;;6.50;4.30;;;;;;;18.47;62.51;100473.56;5016661;28;20040;-81
2022/07/11 01:13:39;;;;;;;4.78;4.07;;;;;;;18.52;62.40;100487.34;5015452;28;20071;-81
2022/07/11 01:16:35;;;;;;;4.97;4.00;;;;;;;18.59;62.26;100473.72;4998725;28;20038;-81
2022/07/11 01:19:00;;;;;;;5.75;4.63;;;;;;;18.48;62.06;100472.50;5004689;28;20042;-81
2022/07/11 01:21:38;;;;;;;;;;;;;;;18.62;61.96;100497.78;4993113;28;20406;-82
2022/07/11 01:24:05;;;;;;;5.60;4.00;;;;;;;18.55;61.75;100476.03;5015836;28;19919;-85
2022/07/11 01:26:33;;;;;;;7.60;3.92;;;;;;;18.79;61.52;100486.41;4992669;28;20042;-81
2022/07/11 01:29:11;;;;;;;;;;;;;;;18.52;62.03;100492.81;5011818;28;20497;-82
2022/07/11 01:31:42;;;;;;;4.68;3.58;;;;;;;18.64;61.67;100501.13;5013516;28;20388;-85
2022/07/11 01:34:09;;;;;;;5.00;4.00;;;;;;;18.56;62.03;100499.47;5005384;28;20033;-81
2022/07/11 01:36:42;;;;;;;;;;;;;;;18.54;62.43;100498.88;4978565;28;20054;-81
2022/07/11 01:39:09;;;;;;;6.20;4.05;;;;;;;18.45;62.12;100477.53;5015808;28;20183;-81
2022/07/11 01:41:35;;;;;;;7.53;4.32;;;;;;;18.64;62.46;100495.66;4986176;28;20042;-82
2022/07/11 01:44:01;;;;;;;5.53;4.00;;;;;;;18.71;61.87;100515.53;5011708;28;20188;-81
2022/07/11 01:46:26;;;;;;;;;;;;;;;18.56;62.75;100504.91;5012405;28;20112;-81
2022/07/11 01:48:53;;;;;;;;;;;;;;;18.46;63.01;100517.31;5016819;28;20276;-82
2022/07/11 01:51:18;;;;;;;7.10;4.10;;;;;;;18.39;63.08;100503.75;5017707;28;19925;-81
2022/07/11 01:53:44;;;;;;;;;;;;;;;18.47;62.74;100514.41;4996160;28;20049;-83
2022/07/11 01:56:09;;;;;;;;;;;;;;;18.44;62.75;100508.53;5009265;28;19913;-81
2022/07/11 01:58:36;;;;;;;5.13;4.10;;;;;;;18.39;62.93;100508.34;5014675;28;19944;-80
2022/07/11 02:01:01;;;;;;;6.03;3.90;;;;;;;18.40;62.58;100513.56;4999707;28;20335;-82
2022/07/11 02:03:27;;;;;;;;;;;;;;;18.37;62.62;100513.19;5012551;28;20053;-80
2022/07/11 02:05:55;;;;;;;6.43;4.10;;;;;;;18.36;62.75;100512.34;5008069;28;19921;-81
2022/07/11 02:08:22;;;;;;;6.22;4.45;;;;;;;18.27;62.99;100517.19;5023218;28;20109;-82
2022/07/11 02:10:52;;;;;;;10.13;4.38;;;;;;;18.23;63.08;100510.50;5020133;28;20037;-82
2022/07/11 02:13:20;;;;;;;5.03;4.32;;;;;;;18.35;62.46;100518.81;5011741;28;20044;-81
2022/07/11 02:15:47;;;;;;;7.50;4.40;;;;;;;18.29;62.64;100512.38;4994062;28;20053;-82
2022/07/11 02:18:14;;;;;;;5.93;4.50;;;;;;;18.18;63.23;100513.03;5014485;28;20037;-82
2022/07/11 02:20:41;;;;;;;8.15;4.10;;;;;;;18.17;63.48;100522.25;5011010;28;20041;-80
2022/07/11 02:23:09;;;;;;;;;;;;;;;18.19;63.15;100520.16;5012959;28;20042;-81
2022/07/11 02:25:39;;;;;;;5.38;4.22;;;;;;;18.04;62.99;100505.97;4996875;28;20253;-81
2022/07/11 02:28:09;;;;;;;7.55;4.60;;;;;;;18.11;63.17;100523.09;4998215;28;20037;-83
2022/07/11 02:30:35;;;;;;;6.63;4.53;;;;;;;18.11;63.34;100523.09;4992706;28;20045;-83
2022/07/11 02:33:02;;;;;;;4.85;4.30;;;;;;;18.14;63.19;100526.25;4997477;28;20061;-84
2022/07/11 02:35:28;;;;;;;6.00;4.40;;;;;;;18.15;63.15;100521.63;5016490;28;20053;-82
2022/07/11 02:37:53;;;;;;;;;;;;;;;18.07;63.33;100525.41;5013511;28;20034;-82
2022/07/11 02:40:20;;;;;;;;;;;;;;;18.20;62.85;100534.59;5036864;28;19909;-82
2022/07/11 02:42:46;;;;;;;6.00;4.97;;;;;;;18.03;63.07;100518.75;5014359;28;19909;-82
2022/07/11 02:45:13;;;;;;;;;;;;;;;18.12;63.40;100532.91;5017590;28;20128;-81
2022/07/11 02:47:42;;;;;;;7.57;5.00;;;;;;;17.89;63.50;100520.66;5009940;28;19917;-83
2022/07/11 02:50:11;;;;;;;6.82;4.93;;;;;;;18.02;63.33;100537.97;5020640;28;20042;-82
2022/07/11 02:52:38;;;;;;;8.52;5.20;;;;;;;18.14;63.01;100547.16;5015137;28;20090;-82
2022/07/11 02:55:03;;;;;;;6.40;4.63;;;;;;;18.00;63.22;100548.25;4994001;28;20045;-82
2022/07/11 02:57:33;;;;;;;6.38;4.57;;;;;;;18.01;63.41;100545.31;5019626;28;20033;-82
2022/07/11 02:59:59;;;;;;;7.88;4.82;;;;;;;18.09;62.97;100553.22;5000704;28;20086;-81
2022/07/11 03:02:26;;;;;;;8.35;4.68;;;;;;;17.99;62.95;100531.09;4980426;28;20124;-81
2022/07/11 03:04:58;;;;;;;6.70;4.40;;;;;;;18.00;62.99;100546.34;5010334;28;20049;-82
2022/07/11 03:07:28;;;;;;;6.38;4.40;;;;;;;17.98;62.86;100544.88;5015847;28;20038;-81
2022/07/11 03:09:54;;;;;;;6.88;4.45;;;;;;;18.00;63.11;100545.50;5002776;28;20037;-83
2022/07/11 03:12:20;;;;;;;5.50;4.22;;;;;;;17.99;62.66;100546.56;5012720;28;20041;-82
2022/07/11 03:14:50;;;;;;;;;;;;;;;18.06;62.21;100558.28;4995100;28;20033;-85
2022/07/11 03:17:19;;;;;;;5.32;4.82;;;;;;;18.09;62.61;100560.56;5010126;28;19920;-81
2022/07/11 03:19:51;;;;;;;5.45;4.50;;;;;;;18.10;62.22;100559.53;5013166;28;20433;-83
2022/07/11 03:22:19;;;;;;;7.40;4.18;;;;;;;18.04;62.28;100538.59;5007733;28;20054;-84
2022/07/11 03:24:46;;;;;;;5.80;4.60;;;;;;;18.12;62.29;100568.28;5007678;28;20042;-84
2022/07/11 03:27:17;;;;;;;7.05;4.35;;;;;;;18.09;61.83;100557.84;5012193;28;20042;-82
2022/07/11 03:29:43;;;;;;;6.75;4.40;;;;;;;18.06;61.87;100550.13;5013226;28;20072;-83
2022/07/11 03:32:09;;;;;;;;;;;;;;;18.18;60.54;100567.44;5008626;28;20474;-83
2022/07/11 03:34:34;;;;;;;;;;;;;;;18.13;59.73;100565.38;5009782;28;19960;-82
2022/07/11 03:37:00;;;;;;;6.57;4.00;;;;;;;18.20;59.94;100564.53;5025668;28;20309;-82
2022/07/11 03:39:25;;;;;;;;;;;;;;;18.28;59.25;100573.28;4982016;28;20082;-83
2022/07/11 03:41:52;;;;;;;4.57;3.60;;;;;;;18.16;59.34;100547.78;5006345;28;19909;-83
2022/07/11 03:44:21;;;;;;;6.55;3.60;;;;;;;18.23;58.75;100562.19;4995403;28;20459;-82
2022/07/11 03:46:49;;;;;;;5.45;3.60;;;;;;;18.24;58.40;100569.31;5007338;28;20128;-82
2022/07/11 03:49:15;;;;;;;6.43;3.60;;;;;;;18.26;58.63;100559.06;5010073;28;20036;-82
2022/07/11 03:51:42;;;;;;;6.75;3.67;;;;;;;18.42;58.18;100579.50;5006835;28;20308;-81
2022/07/11 03:54:11;;;;;;;4.85;3.80;;;;;;;18.41;58.04;100566.97;4991849;28;20048;-84
2022/07/11 03:56:37;;;;;;;4.10;3.55;;;;;;;18.49;57.73;100572.16;5006189;28;20048;-82
2022/07/11 03:59:03;;;;;;;5.10;3.38;;;;;;;18.60;57.65;100569.81;5009788;28;20558;-81
2022/07/11 04:01:28;;;;;;;;;;;;;;;18.65;56.89;100573.56;5008083;28;20121;-80
2022/07/11 04:03:56;;;;;;;;;;;;;;;18.64;56.86;100569.19;5008524;28;19996;-81
2022/07/11 04:06:22;;;;;;;6.35;3.72;;;;;;;18.67;57.18;100578.81;5007290;28;19929;-86
2022/07/11 04:08:51;;;;;;;;;;;;;;;18.75;56.61;100573.94;4976678;28;20046;-82
2022/07/11 04:11:16;;;;;;;4.50;3.13;;;;;;;18.75;56.40;100573.94;5008415;28;19917;-82
2022/07/11 04:13:43;;;;;;;4.78;3.50;;;;;;;18.94;56.05;100571.34;4998853;28;20034;-81
2022/07/11 04:16:09;;;;;;;6.63;3.25;;;;;;;19.11;55.64;100569.78;5004691;28;20026;-82
2022/07/11 04:18:37;;;;;;;;;;;;;;;19.34;54.87;100574.69;5008293;28;20049;-82
2022/07/11 04:21:03;;;;;;;5.18;3.35;;;;;;;19.35;54.25;100573.59;4998049;28;20246;-85
2022/07/11 04:23:33;;;;;;;6.78;3.60;;;;;;;19.64;54.33;100592.25;4981205;28;20467;-83
2022/07/11 04:25:58;;;;;;;6.18;3.50;;;;;;;19.78;53.33;100582.94;4981003;28;20030;-83
2022/07/11 04:28:27;;;;;;;7.07;3.53;;;;;;;19.91;52.77;100582.81;4975732;28;20042;-85
2022/07/11 04:30:55;;;;;;;6.10;3.20;;;;;;;20.05;52.15;100577.25;5011491;28;20134;-83
2022/07/11 04:33:21;;;;;;;5.20;3.25;;;;;;;20.16;51.85;100569.16;5011781;28;20505;-86
2022/07/11 04:35:47;;;;;;;;;;;;;;;20.45;51.05;100592.13;5008469;28;20046;-82
2022/07/11 04:38:12;;;;;;;4.03;3.22;;;;;;;20.50;50.82;100596.91;5008590;28;19921;-82
2022/07/11 04:40:38;;;;;;;4.90;2.90;;;;;;;20.70;49.99;100584.91;4996719;28;20061;-83
2022/07/11 04:43:05;;;;;;;6.90;3.08;;;;;;;20.91;48.80;100580.84;4988745;28;20029;-82
2022/07/11 04:45:33;;;;;;;4.43;2.60;;;;;;;20.92;48.00;100566.97;5003220;28;20034;-83
2022/07/11 04:48:01;;;;;;;4.75;2.90;;;;;;;21.16;47.61;100587.00;4992758;28;20065;-84
2022/07/11 04:50:27;;;;;;;5.05;2.80;;;;;;;21.20;47.43;100590.13;4998318;28;20052;-83
2022/07/11 04:52:55;;;;;;;5.15;4.07;;;;;;;21.47;47.36;100596.91;4977226;28;20415;-83
2022/07/11 04:55:23;;;;;;;8.95;3.60;;;;;;;21.52;46.49;100588.00;4982854;28;20037;-84
2022/07/11 04:57:49;;;;;;;3.13;2.50;;;;;;;21.61;45.84;100583.00;5013970;28;20030;-82
2022/07/11 05:00:15;;;;;;;4.10;2.60;;;;;;;21.66;45.79;100597.66;4990329;28;20022;-83
2022/07/11 05:02:43;;;;;;;4.10;2.83;;;;;;;21.86;45.74;100604.69;5009719;28;20029;-83
2022/07/11 05:05:09;;;;;;;3.47;2.50;;;;;;;22.09;45.16;100610.16;4983735;28;20076;-83
2022/07/11 05:07:36;;;;;;;4.38;2.42;;;;;;;22.20;44.96;100600.28;5010466;28;20179;-82
2022/07/11 05:10:04;;;;;;;5.53;2.85;;;;;;;22.29;44.99;100598.06;5006769;28;20050;-83
2022/07/11 05:12:31;;;;;;;8.38;2.72;;;;;;;22.54;44.66;100611.44;5012496;28;20065;-85
2022/07/11 05:15:01;;;;;;;5.25;2.70;;;;;;;22.75;44.42;100612.69;5013871;28;20050;-83
2022/07/11 05:17:26;;;;;;;4.57;2.78;;;;;;;22.99;44.42;100613.47;5027020;28;20053;-82
2022/07/11 05:19:52;;;;;;;10.05;4.75;;;;;;;23.30;43.54;100625.88;4987372;28;20141;-83
2022/07/11 05:22:19;;;;;;;4.63;3.08;;;;;;;23.38;42.96;100633.69;4988712;28;20053;-82
2022/07/11 05:24:49;;;;;;;10.18;3.30;;;;;;;23.56;42.33;100613.44;5010476;28;20090;-84
2022/07/11 05:27:15;;;;;;;5.63;2.80;;;;;;;23.88;42.16;100618.41;5011298;28;20037;-82
2022/07/11 05:29:42;;;;;;;9.55;3.30;;;;;;;24.09;41.39;100633.28;4998262;28;20450;-84
2022/07/11 05:32:10;;;;;;;5.30;3.00;;;;;;;24.33;41.20;100631.16;5010513;28;20034;-82
2022/07/11 05:34:39;;;;;;;6.50;3.00;;;;;;;24.42;40.71;100626.88;5012250;28;20030;-83
2022/07/11 05:37:05;;;;;;;8.70;3.00;;;;;;;24.42;41.22;100637.88;5000326;28;20478;-83
2022/07/11 05:39:33;;;;;;;4.60;2.80;;;;;;;24.58;40.40;100643.59;5005640;28;20121;-83
2022/07/11 05:41:59;;;;;;;7.05;3.08;;;;;;;24.57;40.52;100633.69;5009501;28;20068;-83
2022/07/11 05:44:27;;;;;;;4.10;3.10;;;;;;;24.65;40.12;100638.75;4993272;28;20048;-83
2022/07/11 05:46:52;;;;;;;4.35;2.95;;;;;;;24.61;40.64;100635.69;5007757;28;20120;-82
2022/07/11 05:49:18;;;;;;;7.78;3.47;;;;;;;24.98;39.82;100646.03;5008363;28;20128;-83
2022/07/11 05:51:44;;;;;;;8.65;3.13;;;;;;;24.97;39.33;100616.03;5010662;28;20046;-82
2022/07/11 05:54:09;;;;;;;5.93;3.70;;;;;;;25.08;40.13;100639.00;5011906;28;20034;-86
2022/07/11 05:56:35;;;;;;;8.32;3.90;;;;;;;25.29;39.78;100640.91;4992306;28;20085;-81
2022/07/11 05:59:01;;;;;;;5.88;4.00;;;;;;;25.43;39.73;100641.31;4978940;28;20046;-85
2022/07/11 06:01:27;;;;;;;10.95;5.13;;;;;;;25.45;40.63;100641.88;4974560;28;20069;-83
2022/07/11 06:03:52;;;;;;;12.20;4.60;;;;;;;25.51;40.52;100629.00;5008290;28;20046;-84
2022/07/11 06:06:25;;;;;;;9.15;4.10;;;;;;;25.46;39.87;100652.63;4993106;28;20045;-85
2022/07/11 06:08:51;;;;;;;9.65;3.80;;;;;;;25.60;39.15;100647.53;5009856;28;20476;-86
2022/07/11 06:11:16;;;;;;;8.57;4.55;;;;;;;25.64;39.76;100648.69;5011218;28;20036;-83
2022/07/11 06:13:47;;;;;;;10.48;4.20;;;;;;;25.57;39.93;100656.31;4985188;28;20137;-85
2022/07/11 06:16:16;;;;;;;13.27;4.45;;;;;;;25.66;39.98;100645.66;5007780;28;20049;-86
2022/07/11 06:18:41;;;;;;;7.68;4.95;;;;;;;26.02;39.94;100670.78;5010368;28;20057;-85
2022/07/11 06:21:08;;;;;;;8.38;5.10;;;;;;;26.06;39.83;100666.41;4976152;28;20057;-82
2022/07/11 06:23:36;;;;;;;17.67;5.00;;;;;;;26.21;39.91;100657.41;5012426;28;20426;-84
2022/07/11 06:26:04;;;;;;;15.82;5.07;;;;;;;26.51;39.00;100670.56;5011984;28;20248;-83
2022/07/11 06:28:30;;;;;;;7.10;3.20;;;;;;;26.53;36.59;100671.13;4973233;28;20062;-83
2022/07/11 06:30:56;;;;;;;7.68;3.45;;;;;;;26.76;36.08;100674.56;5008812;28;20096;-82
2022/07/11 06:33:24;;;;;;;7.35;3.50;;;;;;;26.94;36.50;100674.91;5015520;28;20482;-85
2022/07/11 06:35:51;;;;;;;6.90;3.80;;;;;;;27.17;37.30;100673.63;4977806;28;20040;-85
2022/07/11 06:38:17;;;;;;;6.38;3.63;;;;;;;27.13;37.23;100672.50;5002306;28;20145;-85
2022/07/11 06:40:43;;;;;;;4.88;3.65;;;;;;;27.16;36.28;100658.19;5003959;28;20450;-84
2022/07/11 06:43:13;;;;;;;10.43;3.53;;;;;;;27.03;37.18;100661.44;5012113;28;20037;-86
2022/07/11 06:45:42;;;;;;;6.30;3.40;;;;;;;27.30;36.25;100654.91;5006123;28;20168;-84
2022/07/11 06:48:13;;;;;;;8.77;3.47;;;;;;;27.58;35.51;100675.66;5021435;28;20497;-84
2022/07/11 06:50:42;;;;;;;6.60;3.42;;;;;;;27.78;34.96;100674.88;5014049;28;20076;-85
2022/07/11 06:53:08;;;;;;;7.00;5.07;;;;;;;27.82;33.77;100681.50;5001818;28;20037;-83
2022/07/11 06:55:38;;;;;;;17.67;3.58;;;;;;;27.71;33.81;100658.56;5005041;28;20044;-81
2022/07/11 06:58:05;;;;;;;11.40;3.75;;;;;;;27.80;34.58;100672.66;4990867;28;20446;-83
2022/07/11 07:00:32;;;;;;;12.50;3.38;;;;;;;27.82;33.67;100664.13;4994543;28;20030;-80
2022/07/11 07:02:58;;;;;;;6.57;2.92;;;;;;;27.95;33.44;100675.44;4991740;28;20451;-82
2022/07/11 07:05:30;;;;;;;9.57;3.50;;;;;;;28.16;33.11;100669.91;5011892;28;20030;-81
2022/07/11 07:07:57;;;;;;;19.73;3.88;;;;;;;28.44;32.44;100685.06;5009871;28;20049;-81
2022/07/11 07:10:25;;;;;;;21.88;3.90;;;;;;;28.12;33.42;100675.19;5017912;28;20125;-82
2022/07/11 07:13:30;;;;;;;;;;;;;;;;;;;;;
2022/07/11 07:16:07;;;;;;;8.23;3.20;;;;;;;27.70;32.98;100689.25;5016414;28;20038;-81
2022/07/11 07:18:38;;;;;;;13.80;3.80;;;;;;;28.07;33.08;100682.63;5009442;28;20041;-79
2022/07/11 07:21:07;;;;;;;5.35;3.50;;;;;;;28.39;32.67;100696.13;5007603;28;20108;-82
2022/07/11 07:23:34;;;;;;;5.00;3.40;;;;;;;28.70;32.67;100694.16;4994584;28;20038;-81
2022/07/11 07:26:00;;;;;;;9.70;3.72;;;;;;;28.92;32.46;100685.50;4969760;28;20045;-80
2022/07/11 07:28:28;;;;;;;8.63;3.83;;;;;;;29.11;32.20;100688.50;5020511;28;20042;-82
2022/07/11 07:31:01;;;;;;;9.77;3.58;;;;;;;29.40;31.68;100687.78;4999378;28;20066;-81
2022/07/11 07:33:28;;;;;;;9.35;3.72;;;;;;;29.67;30.70;100693.72;5013199;28;20022;-81
2022/07/11 07:36:00;;;;;;;8.02;3.95;;;;;;;29.52;30.96;100690.19;4999732;28;20037;-85
2022/07/11 07:38:27;;;;;;;6.28;4.07;;;;;;;29.24;31.43;100668.50;5019732;28;20046;-86
2022/07/11 07:40:54;;;;;;;15.98;3.72;;;;;;;29.27;31.55;100683.72;5006512;28;20631;-82
2022/07/11 07:43:23;;;;;;;14.00;3.78;;;;;;;29.35;31.52;100696.13;5011965;28;20092;-84
2022/07/11 07:45:49;;;;;;;13.20;3.30;;;;;;;29.40;31.16;100698.84;5010046;28;20029;-83
2022/07/11 07:48:15;;;;;;;12.70;3.63;;;;;;;29.64;30.55;100694.28;5012068;28;20175;-82
2022/07/11 07:51:06;;;;;;;8.82;3.30;;;;;;;29.82;30.85;100683.63;5007339;28;20045;-81
2022/07/11 07:53:33;;;;;;;20.65;3.78;;;;;;;29.77;30.49;100694.75;5013976;28;20041;-82
2022/07/11 07:56:08;;;;;;;34.75;4.05;;;;;;;29.51;30.97;100694.91;4989851;28;20100;-82
2022/07/11 07:58:57;;;;;;;10.15;3.75;;;;;;;29.90;30.28;100685.81;4997659;28;20041;-82
2022/07/11 08:01:35;;;;;;;7.35;3.10;;;;;;;30.20;29.60;100684.69;4993966;28;20383;-85
2022/07/11 08:04:10;;;;;;;10.32;3.72;;;;;;;30.69;28.95;100693.91;5018090;28;20029;-84
2022/07/11 08:06:36;;;;;;;12.40;3.60;;;;;;;30.90;28.74;100698.13;5000835;28;20487;-82
2022/07/11 08:09:04;;;;;;;10.48;3.40;;;;;;;30.94;29.15;100680.91;5015280;28;20073;-82
2022/07/11 08:11:36;;;;;;;19.55;4.35;;;;;;;30.96;29.21;100706.41;4990107;28;20494;-83
2022/07/11 08:14:08;;;;;;;38.72;4.32;;;;;;;31.20;29.23;100701.63;5008252;28;20034;-84
2022/07/11 08:16:35;;;;;;;37.25;4.50;;;;;;;31.58;28.76;100696.13;5004976;28;20471;-83
2022/07/11 08:19:03;;;;;;;23.10;3.78;;;;;;;31.44;28.25;100684.94;4985442;28;20026;-82
2022/07/11 08:21:35;;;;;;;25.17;3.67;;;;;;;31.44;27.87;100678.56;4990121;28;20548;-83
2022/07/11 08:24:04;;;;;;;15.80;3.20;;;;;;;31.75;27.12;100690.84;5002958;28;20133;-86
2022/07/11 08:26:31;;;;;;;19.73;3.90;;;;;;;32.00;26.99;100686.03;5003490;28;20046;-82
2022/07/11 08:29:07;;;;;;;29.35;4.32;;;;;;;32.35;26.58;100678.16;4986961;28;20038;-84
2022/07/11 08:31:32;;;;;;;21.27;3.40;;;;;;;32.73;26.38;100694.72;5005168;28;20049;-84
2022/07/11 08:33:59;;;;;;;25.23;3.97;;;;;;;32.96;26.03;100688.09;5007828;28;20461;-87
2022/07/11 08:36:28;;;;;;;11.65;3.50;;;;;;;32.87;26.32;100689.97;4987314;28;20034;-84
2022/07/11 08:38:55;;;;;;;20.25;4.65;;;;;;;32.96;26.06;100699.25;4998470;28;20462;-86
2022/07/11 08:41:23;;;;;;;15.82;3.22;;;;;;;32.99;25.37;100706.16;4993234;28;20064;-80
2022/07/11 08:43:51;;;;;;;7.88;3.17;;;;;;;32.97;25.39;100706.47;4975644;28;20082;-81
2022/07/11 08:46:16;;;;;;;6.50;3.60;;;;;;;33.02;25.22;100705.53;5009295;28;20037;-83
2022/07/11 08:48:42;;;;;;;4.97;2.95;;;;;;;33.48;24.77;100703.72;4995396;28;20502;-83
2022/07/11 08:51:08;;;;;;;6.40;3.58;;;;;;;33.62;25.61;100685.88;5012300;28;20045;-79
2022/07/11 08:53:34;;;;;;;5.65;2.90;;;;;;;33.59;24.62;100696.81;5011918;28;20063;-83
2022/07/11 08:55:59;;;;;;;7.45;3.67;;;;;;;33.62;24.50;100696.16;4988835;28;20482;-82
2022/07/11 08:58:26;;;;;;;11.05;2.90;;;;;;;32.19;25.88;100677.63;5001879;28;20091;-82
2022/07/11 09:00:52;;;;;;;4.47;2.70;;;;;;;32.55;25.31;100677.00;4983992;28;20456;-84
2022/07/11 09:03:18;;;;;;;4.25;2.60;;;;;;;33.03;25.04;100684.09;5021876;28;20036;-84
2022/07/11 09:05:44;;;;;;;5.78;3.13;;;;;;;34.01;23.80;100684.31;5000003;28;20507;-80
2022/07/11 09:08:18;;;;;;;6.63;3.10;;;;;;;33.14;24.81;100691.13;4997890;28;20049;-82
2022/07/11 09:10:48;;;;;;;4.13;3.35;;;;;;;33.37;24.86;100678.88;4979081;28;20516;-83
2022/07/11 09:13:16;;;;;;;5.40;3.00;;;;;;;33.61;24.20;100695.34;4996663;28;20042;-85
2022/07/11 09:15:45;;;;;;;7.63;2.95;;;;;;;33.37;24.57;100711.50;5019950;28;20041;-82
2022/07/11 09:18:36;;;;;;;5.57;2.78;;;;;;;34.12;22.96;100696.06;4998628;28;20097;-86
2022/07/11 09:26:40;;;;;;;4.93;3.03;;;;;;;36.03;21.51;100675.31;5014672;28;20048;-86
2022/07/11 09:29:11;;;;;;;5.70;2.85;;;;;;;36.77;20.84;100690.91;4989090;28;20052;-87
2022/07/11 09:31:38;;;;;;;6.13;3.03;;;;;;;37.10;19.87;100693.06;4971673;28;20030;-85
2022/07/11 09:34:10;;;;;;;7.35;2.78;;;;;;;37.74;19.37;100680.69;4997162;28;20034;-85
2022/07/11 09:36:44;;;;;;;4.55;2.70;;;;;;;36.87;19.98;100695.31;4992388;28;20807;-85
2022/07/11 09:39:13;;;;;;;;;;;;;;;37.23;19.46;100693.94;5009545;28;20061;-85
2022/07/11 09:41:41;;;;;;;4.93;2.53;;;;;;;36.71;19.15;100697.84;5013999;28;20416;-86
2022/07/11 09:44:12;;;;;;;4.97;2.50;;;;;;;37.74;18.20;100698.34;5022224;28;20042;-87
2022/07/11 09:46:39;;;;;;;5.53;2.55;;;;;;;37.28;18.99;100690.97;4999986;28;20048;-86
2022/07/11 09:49:08;;;;;;;5.10;2.50;;;;;;;34.92;21.13;100698.91;5023141;28;20037;-92
2022/07/11 09:51:36;;;;;;;5.45;2.50;;;;;;;35.20;21.06;100693.09;4996427;28;20463;-87
2022/07/11 09:54:04;;;;;;;5.15;2.80;;;;;;;36.97;19.75;100697.72;5009049;28;20128;-85
2022/07/11 09:56:51;;;;;;;6.47;3.63;;;;;;;38.43;18.16;100688.38;5016393;28;20128;-85
2022/07/11 09:59:17;;;;;;;8.10;4.57;;;;;;;37.78;18.02;100681.66;5014372;28;20044;-88
2022/07/11 10:01:45;;;;;;;4.10;2.55;;;;;;;37.49;18.26;100691.78;5016787;28;20041;-85
2022/07/11 10:04:13;;;;;;;5.72;2.58;;;;;;;38.85;16.80;100685.38;5019349;28;20056;-87
2022/07/11 10:06:40;;;;;;;4.20;2.90;;;;;;;39.33;16.42;100687.66;5004724;28;20038;-86
2022/07/11 10:09:08;;;;;;;8.07;2.22;;;;;;;37.05;18.38;100674.44;5015574;28;20123;-86
2022/07/11 10:11:35;;;;;;;8.20;2.63;;;;;;;37.09;18.66;100677.38;5024073;28;20053;-88
2022/07/11 10:14:01;;;;;;;5.88;2.28;;;;;;;38.33;17.25;100680.44;5013397;28;20127;-87
2022/07/11 10:16:50;;;;;;;4.72;2.40;;;;;;;38.05;17.60;100690.66;4984962;28;20057;-86
2022/07/11 10:19:24;;;;;;;4.93;2.42;;;;;;;39.06;16.61;100690.09;5008043;28;20099;-82
2022/07/11 10:22:20;;;;;;;7.13;2.40;;;;;;;39.61;15.81;100677.28;5009640;28;20046;-86
2022/07/11 10:24:53;;;;;;;6.72;2.40;;;;;;;39.15;16.21;100687.97;5026952;28;20104;-84
2022/07/11 10:27:31;;;;;;;14.80;2.53;;;;;;;39.53;16.46;100674.66;5013007;28;20452;-86
2022/07/11 10:29:57;;;;;;;10.95;2.75;;;;;;;37.90;17.19;100680.88;5021804;28;20109;-85
2022/07/11 10:32:25;;;;;;;12.32;2.88;;;;;;;36.71;18.04;100672.66;5017505;28;20044;-86
2022/07/11 10:35:10;;;;;;;13.30;2.67;;;;;;;37.29;17.59;100689.78;5024036;28;20070;-87
2022/07/11 10:37:50;;;;;;;10.02;2.92;;;;;;;38.15;17.14;100679.81;4999111;28;20025;-83
2022/07/11 10:40:18;;;;;;;7.68;2.40;;;;;;;38.06;17.10;100678.25;5010199;28;20479;-85
2022/07/11 10:42:43;;;;;;;9.32;2.20;;;;;;;37.58;17.54;100689.75;5015645;28;20065;-90
2022/07/11 10:45:12;;;;;;;15.68;3.13;;;;;;;36.66;18.16;100682.06;4985556;28;20478;-85
2022/07/11 10:47:44;;;;;;;6.30;2.50;;;;;;;35.33;19.61;100688.50;5018647;28;20087;-88
2022/07/11 10:50:26;;;;;;;12.25;2.47;;;;;;;34.57;19.87;100693.19;4998782;28;20133;-87
2022/07/11 10:52:56;;;;;;;5.82;2.50;;;;;;;33.79;21.15;100698.28;5026043;28;20037;-88
2022/07/11 10:56:07;;;;;;;4.07;2.15;;;;;;;32.86;22.75;100701.44;4988262;28;20058;-88
2022/07/11 10:58:34;;;;;;;6.15;2.60;;;;;;;32.35;23.08;100683.75;5038338;28;20041;-86
2022/07/11 11:01:20;;;;;;;7.13;2.50;;;;;;;32.13;23.27;100699.16;5009584;28;20053;-86
2022/07/11 11:03:50;;;;;;;5.20;2.50;;;;;;;31.79;23.83;100699.41;5021880;28;20031;-85
2022/07/11 11:06:20;;;;;;;6.78;2.60;;;;;;;31.92;24.09;100695.84;5012743;28;20050;-92
2022/07/11 11:08:47;;;;;;;3.22;2.50;;;;;;;32.31;22.89;100708.56;5014618;28;20474;-88
2022/07/11 11:11:36;;;;;;;4.82;2.75;;;;;;;31.50;23.75;100696.81;4997690;28;20105;-85
2022/07/11 11:14:30;;;;;;;5.20;2.40;;;;;;;31.25;24.48;100693.22;5025246;28;20146;-90
2022/07/11 11:17:35;;;;;;;10.00;2.80;;;;;;;31.57;23.96;100700.03;5019173;28;20054;-86
2022/07/11 11:20:04;;;;;;;6.13;2.63;;;;;;;31.55;23.89;100685.63;5000664;28;20398;-90
2022/07/11 11:22:33;;;;;;;12.57;2.55;;;;;;;31.43;24.26;100676.91;4998857;28;20083;-90
2022/07/11 11:25:08;;;;;;;6.15;2.80;;;;;;;31.62;23.96;100672.16;5014780;28;20076;-88
2022/07/11 11:27:38;;;;;;;5.50;2.70;;;;;;;31.73;24.17;100698.66;5014149;28;20102;-90
2022/07/11 11:30:17;;;;;;;5.82;2.50;;;;;;;31.37;24.56;100678.91;5014747;28;20285;-87
2022/07/11 11:32:43;;;;;;;10.27;2.90;;;;;;;31.65;23.94;100679.88;4982994;28;20041;-86
2022/07/11 11:35:14;;;;;;;8.00;2.67;;;;;;;32.08;24.05;100704.00;4995971;28;20466;-88
2022/07/11 11:37:46;;;;;;;7.93;2.53;;;;;;;31.60;24.21;100671.63;5015075;28;20038;-86
2022/07/11 11:40:12;;;;;;;4.38;2.40;;;;;;;31.80;23.92;100678.84;5012664;28;20018;-88
2022/07/11 11:42:39;;;;;;;4.10;2.47;;;;;;;31.91;24.31;100668.34;4993956;28;20048;-84
2022/07/11 11:45:10;;;;;;;3.95;2.40;;;;;;;32.20;23.96;100659.81;5020404;28;20076;-88
2022/07/11 11:47:48;;;;;;;5.80;2.38;;;;;;;32.43;23.40;100677.47;4999189;28;20030;-86